createdAt,value
2019-05-25T00:00:22.596Z,0.00
2019-05-25T00:01:23.214Z,0.00
2019-05-25T00:02:23.687Z,0.00
2019-05-25T00:03:24.223Z,0.00
2019-05-25T00:04:24.667Z,0.00
2019-05-25T00:05:25.193Z,0.00
2019-05-25T00:06:25.618Z,0.00
2019-05-25T00:07:26.222Z,0.00
2019-05-25T00:08:26.642Z,0.00
2019-05-25T00:09:27.063Z,0.00
2019-05-25T00:10:27.502Z,0.00
2019-05-25T00:11:27.925Z,0.00
2019-05-25T00:12:29.510Z,0.00
2019-05-25T00:13:29.943Z,0.00
2019-05-25T00:14:30.549Z,0.00
2019-05-25T00:15:30.983Z,0.00
2019-05-25T00:16:31.608Z,0.00
2019-05-25T00:17:32.037Z,0.00
2019-05-25T00:18:32.523Z,0.00
2019-05-25T00:19:32.951Z,0.00
2019-05-25T00:20:33.506Z,0.00
2019-05-25T00:21:33.937Z,0.00
2019-05-25T00:22:34.493Z,0.00
2019-05-25T00:23:34.916Z,0.00
2019-05-25T00:24:35.342Z,0.00
2019-05-25T00:25:35.785Z,0.00
2019-05-25T00:26:36.262Z,0.00
2019-05-25T00:27:36.690Z,0.00
2019-05-25T00:28:37.129Z,0.00
2019-05-25T00:29:37.618Z,0.00
2019-05-25T00:30:38.051Z,0.00
2019-05-25T00:31:38.469Z,0.00
2019-05-25T00:32:38.894Z,0.00
2019-05-25T00:33:39.317Z,0.00
2019-05-25T00:34:39.747Z,0.00
2019-05-25T00:35:40.178Z,0.00
2019-05-25T00:36:40.613Z,0.00
2019-05-25T00:37:41.040Z,0.00
2019-05-25T00:38:41.467Z,0.00
2019-05-25T00:39:41.898Z,0.00
2019-05-25T00:40:42.335Z,0.00
2019-05-25T00:41:42.760Z,0.00
2019-05-25T00:42:43.180Z,0.00
2019-05-25T00:43:43.657Z,0.00
2019-05-25T00:44:44.119Z,0.00
2019-05-25T00:45:44.567Z,0.00
2019-05-25T00:46:45.008Z,0.00
2019-05-25T00:47:45.434Z,0.00
2019-05-25T00:48:45.939Z,0.00
2019-05-25T00:49:46.369Z,0.00
2019-05-25T00:50:46.924Z,0.00
2019-05-25T00:51:47.348Z,0.00
2019-05-25T00:52:47.810Z,0.00
2019-05-25T00:53:48.241Z,0.00
2019-05-25T00:57:08.316Z,0.00
2019-05-25T00:58:24.754Z,0.00
2019-05-25T00:59:25.200Z,0.00
2019-05-25T01:00:25.689Z,0.00
2019-05-25T01:01:26.136Z,0.00
2019-05-25T01:02:48.642Z,0.00
2019-05-25T01:03:49.080Z,0.00
2019-05-25T01:05:12.620Z,0.00
2019-05-25T01:06:13.052Z,0.00
2019-05-25T01:07:15.497Z,0.00
2019-05-25T01:08:15.971Z,0.00
2019-05-25T01:09:16.429Z,0.00
2019-05-25T01:10:39.935Z,0.00
2019-05-25T01:11:40.363Z,0.00
2019-05-25T01:12:42.873Z,0.00
2019-05-25T01:13:43.295Z,0.00
2019-05-25T01:14:58.766Z,0.00
2019-05-25T01:15:59.217Z,0.00
2019-05-25T01:17:27.247Z,0.00
2019-05-25T01:18:27.676Z,0.00
2019-05-25T01:19:28.181Z,0.00
2019-05-25T01:20:28.613Z,0.00
2019-05-25T01:21:30.160Z,0.00
2019-05-25T01:22:30.591Z,0.00
2019-05-25T01:23:37.719Z,0.00
2019-05-25T01:24:44.412Z,0.00
2019-05-25T01:27:53.964Z,0.00
2019-05-25T01:28:54.401Z,0.00
2019-05-25T01:29:54.829Z,0.00
2019-05-25T01:30:57.035Z,0.00
2019-05-25T01:32:18.499Z,0.00
2019-05-25T01:33:18.930Z,0.00
2019-05-25T01:34:19.356Z,0.00
2019-05-25T01:35:19.776Z,0.00
2019-05-25T01:36:20.230Z,0.00
2019-05-25T01:37:20.655Z,0.00
2019-05-25T01:38:21.077Z,0.00
2019-05-25T01:39:21.500Z,0.00
2019-05-25T01:40:21.924Z,0.00
2019-05-25T01:41:22.371Z,0.00
2019-05-25T01:42:50.653Z,0.00
2019-05-25T01:43:51.105Z,0.00
2019-05-25T01:44:51.541Z,0.00
2019-05-25T01:45:52.007Z,0.00
2019-05-25T01:46:52.421Z,0.00
2019-05-25T01:47:53.932Z,0.00
2019-05-25T01:48:54.365Z,0.00
2019-05-25T01:49:56.813Z,0.00
2019-05-25T01:50:57.255Z,0.00
2019-05-25T01:54:09.792Z,0.00
2019-05-25T01:55:10.261Z,0.00
2019-05-25T01:56:10.702Z,0.00
2019-05-25T01:57:13.142Z,0.00
2019-05-25T01:58:13.574Z,0.00
2019-05-25T02:01:23.370Z,0.00
2019-05-25T02:02:31.521Z,0.00
2019-05-25T02:03:31.955Z,0.00
2019-05-25T02:04:39.019Z,0.00
2019-05-25T02:05:39.448Z,0.00
2019-05-25T02:06:39.965Z,0.00
2019-05-25T02:07:40.431Z,0.00
2019-05-25T02:08:41.895Z,0.00
2019-05-25T02:09:42.331Z,0.00
2019-05-25T02:10:42.826Z,0.00
2019-05-25T02:11:43.270Z,0.00
2019-05-25T02:14:55.821Z,0.00
2019-05-25T02:16:35.739Z,0.00
2019-05-25T02:17:36.160Z,0.00
2019-05-25T02:18:36.659Z,0.00
2019-05-25T02:19:37.099Z,0.00
2019-05-25T02:20:37.685Z,0.00
2019-05-25T02:21:38.145Z,0.00
2019-05-25T02:24:50.673Z,0.00
2019-05-25T02:26:13.275Z,0.00
2019-05-25T02:27:13.695Z,0.00
2019-05-25T02:28:23.088Z,0.00
2019-05-25T02:29:23.517Z,0.00
2019-05-25T02:30:25.061Z,0.00
2019-05-25T02:31:25.507Z,0.00
2019-05-25T02:32:25.983Z,0.00
2019-05-25T02:33:26.414Z,0.00
2019-05-25T02:34:28.878Z,0.00
2019-05-25T02:35:29.295Z,0.00
2019-05-25T02:36:53.597Z,0.00
2019-05-25T02:37:54.024Z,0.00
2019-05-25T02:38:54.550Z,0.00
2019-05-25T02:39:54.966Z,0.00
2019-05-25T02:40:55.388Z,0.00
2019-05-25T02:41:55.832Z,0.00
2019-05-25T02:42:56.248Z,0.00
2019-05-25T02:43:56.691Z,0.00
2019-05-25T02:44:57.151Z,0.00
2019-05-25T02:45:57.570Z,0.00
2019-05-25T02:46:58.022Z,0.00
2019-05-25T02:47:58.454Z,0.00
2019-05-25T02:48:58.872Z,0.00
2019-05-25T02:49:59.293Z,0.00
2019-05-25T02:50:59.750Z,0.00
2019-05-25T02:52:00.195Z,0.00
2019-05-25T02:53:00.622Z,0.00
2019-05-25T02:54:01.058Z,0.00
2019-05-25T02:55:01.499Z,0.00
2019-05-25T02:56:01.928Z,0.00
2019-05-25T02:57:02.375Z,0.00
2019-05-25T02:58:02.802Z,0.00
2019-05-25T02:59:03.229Z,0.00
2019-05-25T03:00:03.667Z,0.00
2019-05-25T03:01:04.122Z,0.00
2019-05-25T03:02:04.564Z,0.00
2019-05-25T03:03:04.990Z,0.00
2019-05-25T03:04:05.415Z,0.00
2019-05-25T03:05:05.834Z,0.00
2019-05-25T03:06:06.699Z,0.00
2019-05-25T03:07:07.736Z,0.00
2019-05-25T03:08:08.162Z,0.00
2019-05-25T03:09:08.584Z,0.00
2019-05-25T03:10:09.011Z,0.00
2019-05-25T03:11:09.432Z,0.00
2019-05-25T03:12:09.876Z,0.00
2019-05-25T03:13:10.349Z,0.00
2019-05-25T03:14:10.782Z,0.00
2019-05-25T03:15:11.283Z,0.00
2019-05-25T03:16:11.708Z,0.00
2019-05-25T03:17:12.156Z,0.00
2019-05-25T03:18:12.605Z,0.00
2019-05-25T03:19:13.018Z,0.00
2019-05-25T03:20:13.445Z,0.00
2019-05-25T03:21:13.872Z,0.00
2019-05-25T03:22:14.313Z,0.00
2019-05-25T03:23:14.748Z,0.00
2019-05-25T03:24:15.237Z,0.00
2019-05-25T03:25:15.666Z,0.00
2019-05-25T03:26:16.109Z,0.00
2019-05-25T03:27:16.554Z,0.00
2019-05-25T03:28:17.013Z,0.00
2019-05-25T03:29:17.436Z,0.00
2019-05-25T03:30:17.872Z,0.00
2019-05-25T03:31:18.313Z,0.00
2019-05-25T03:32:18.750Z,0.00
2019-05-25T03:33:19.197Z,0.00
2019-05-25T03:34:19.636Z,0.00
2019-05-25T03:35:35.083Z,0.00
2019-05-25T03:36:35.528Z,0.00
2019-05-25T03:37:36.022Z,0.00
2019-05-25T03:38:36.457Z,0.00
2019-05-25T03:39:41.969Z,0.00
2019-05-25T03:40:42.390Z,0.00
2019-05-25T03:41:42.933Z,0.00
2019-05-25T03:42:43.362Z,0.00
2019-05-25T03:43:43.839Z,0.00
2019-05-25T03:44:44.260Z,0.00
2019-05-25T03:45:44.773Z,0.00
2019-05-25T03:46:45.323Z,0.00
2019-05-25T03:47:45.810Z,0.00
2019-05-25T03:48:46.237Z,0.00
2019-05-25T03:49:46.750Z,0.00
2019-05-25T03:50:47.175Z,0.00
2019-05-25T03:51:49.666Z,0.00
2019-05-25T03:52:50.086Z,0.00
2019-05-25T03:53:50.562Z,0.00
2019-05-25T03:54:50.987Z,0.00
2019-05-25T03:56:04.801Z,0.00
2019-05-25T03:56:57.917Z,0.00
2019-05-25T03:57:58.383Z,0.00
2019-05-25T03:58:58.810Z,0.00
2019-05-25T03:59:59.307Z,0.00
2019-05-25T04:00:59.733Z,0.00
2019-05-25T04:02:00.285Z,0.00
2019-05-25T04:03:00.720Z,0.00
2019-05-25T04:04:01.177Z,0.00
2019-05-25T04:05:01.621Z,0.00
2019-05-25T04:06:02.164Z,0.00
2019-05-25T04:07:02.601Z,0.00
2019-05-25T04:08:03.054Z,0.00
2019-05-25T04:09:03.487Z,5.62
2019-05-25T04:10:03.932Z,5.62
2019-05-25T04:11:04.369Z,5.62
2019-05-25T04:12:04.852Z,0.00
2019-05-25T04:13:05.279Z,0.00
2019-05-25T04:14:05.754Z,0.00
2019-05-25T04:15:06.170Z,0.00
2019-05-25T04:16:06.690Z,0.00
2019-05-25T04:17:07.148Z,5.62
2019-05-25T04:18:07.628Z,0.00
2019-05-25T04:19:08.060Z,0.00
2019-05-25T04:20:08.560Z,5.62
2019-05-25T04:21:08.989Z,5.62
2019-05-25T04:22:09.432Z,5.62
2019-05-25T04:23:09.851Z,5.62
2019-05-25T04:24:10.327Z,5.62
2019-05-25T04:25:10.762Z,5.62
2019-05-25T04:26:22.189Z,5.62
2019-05-25T04:27:17.631Z,5.62
2019-05-25T04:28:26.132Z,5.62
2019-05-25T04:29:26.563Z,5.62
2019-05-25T04:30:26.994Z,5.62
2019-05-25T04:31:27.415Z,5.62
2019-05-25T04:32:27.933Z,5.62
2019-05-25T04:33:28.361Z,5.62
2019-05-25T04:34:28.831Z,11.25
2019-05-25T04:35:29.258Z,11.25
2019-05-25T04:36:29.764Z,11.25
2019-05-25T04:37:30.210Z,11.25
2019-05-25T04:38:30.700Z,11.25
2019-05-25T04:39:31.122Z,16.88
2019-05-25T04:40:38.604Z,16.88
2019-05-25T04:41:39.031Z,16.88
2019-05-25T04:42:39.569Z,16.88
2019-05-25T04:43:39.995Z,16.88
2019-05-25T04:44:41.475Z,16.88
2019-05-25T04:45:41.894Z,16.88
2019-05-25T04:48:52.916Z,16.88
2019-05-25T04:50:08.342Z,16.88
2019-05-25T04:51:08.762Z,16.88
2019-05-25T04:52:10.229Z,16.88
2019-05-25T04:53:10.648Z,16.88
2019-05-25T04:54:32.125Z,22.50
2019-05-25T04:55:32.541Z,22.50
2019-05-25T04:56:39.572Z,22.50
2019-05-25T04:57:40.401Z,22.50
2019-05-25T04:58:56.828Z,22.50
2019-05-25T04:59:57.249Z,22.50
2019-05-25T05:07:31.242Z,28.12
2019-05-25T05:08:34.960Z,28.12
2019-05-25T05:09:36.096Z,28.12
2019-05-25T05:11:53.618Z,28.12
2019-05-25T05:12:54.097Z,28.12
2019-05-25T05:13:54.514Z,28.12
2019-05-25T05:14:56.615Z,33.75
2019-05-25T05:15:57.085Z,39.38
2019-05-25T05:16:57.991Z,39.38
2019-05-25T05:17:58.426Z,39.38
2019-05-25T05:19:10.590Z,39.38
2019-05-25T05:20:11.021Z,39.38
2019-05-25T05:21:12.555Z,45.00
2019-05-25T05:22:12.997Z,45.00
2019-05-25T05:23:20.141Z,39.38
2019-05-25T05:24:20.572Z,39.38
2019-05-25T05:25:27.636Z,39.38
2019-05-25T05:26:28.156Z,39.38
2019-05-25T05:27:32.188Z,39.38
2019-05-25T05:28:32.620Z,39.38
2019-05-25T05:29:34.116Z,39.38
2019-05-25T05:30:34.537Z,45.00
2019-05-25T05:32:52.035Z,45.00
2019-05-25T05:33:54.519Z,45.00
2019-05-25T05:34:54.938Z,45.00
2019-05-25T05:36:16.451Z,39.38
2019-05-25T05:37:16.907Z,39.38
2019-05-25T05:38:32.127Z,39.38
2019-05-25T05:39:32.554Z,39.38
2019-05-25T05:40:34.086Z,33.75
2019-05-25T05:41:34.503Z,33.75
2019-05-25T05:42:37.101Z,33.75
2019-05-25T05:43:37.533Z,39.38
2019-05-25T05:44:38.018Z,33.75
2019-05-25T05:45:38.440Z,28.12
2019-05-25T05:46:53.586Z,33.75
2019-05-25T05:47:54.024Z,33.75
2019-05-25T05:48:56.566Z,33.75
2019-05-25T05:49:57.001Z,33.75
2019-05-25T05:50:59.447Z,33.75
2019-05-25T05:51:59.870Z,33.75
2019-05-25T05:55:10.886Z,33.75
2019-05-25T05:58:27.909Z,33.75
2019-05-25T06:00:04.323Z,33.75
2019-05-25T06:01:04.743Z,39.38
2019-05-25T06:02:05.256Z,39.38
2019-05-25T06:03:05.711Z,39.38
2019-05-25T06:04:20.833Z,39.38
2019-05-25T06:05:21.671Z,39.38
2019-05-25T06:08:34.223Z,33.75
2019-05-25T06:09:34.645Z,39.38
2019-05-25T06:10:35.526Z,39.38
2019-05-25T06:11:35.965Z,39.38
2019-05-25T06:12:36.422Z,39.38
2019-05-25T06:13:36.843Z,39.38
2019-05-25T06:14:39.341Z,33.75
2019-05-25T06:15:39.778Z,33.75
2019-05-25T06:16:57.174Z,39.38
2019-05-25T06:17:57.614Z,39.38
2019-05-25T06:18:58.105Z,39.38
2019-05-25T06:19:58.532Z,39.38
2019-05-25T06:21:00.882Z,39.38
2019-05-25T06:22:01.307Z,28.12
2019-05-25T06:23:01.853Z,33.75
2019-05-25T06:24:02.275Z,33.75
2019-05-25T06:25:03.782Z,33.75
2019-05-25T06:26:04.201Z,39.38
2019-05-25T06:27:27.753Z,39.38
2019-05-25T06:28:28.526Z,50.62
2019-05-25T06:29:30.018Z,50.62
2019-05-25T06:30:30.441Z,56.25
2019-05-25T06:31:32.906Z,56.25
2019-05-25T06:32:33.329Z,39.38
2019-05-25T06:33:34.926Z,39.38
2019-05-25T06:34:35.346Z,45.00
2019-05-25T06:35:36.824Z,45.00
2019-05-25T06:36:37.247Z,50.62
2019-05-25T06:37:37.755Z,50.62
2019-05-25T06:38:38.189Z,56.25
2019-05-25T06:39:38.606Z,56.25
2019-05-25T06:40:39.903Z,56.25
2019-05-25T06:41:40.333Z,56.25
2019-05-25T06:42:40.753Z,67.50
2019-05-25T06:43:41.193Z,61.88
2019-05-25T06:44:41.685Z,67.50
2019-05-25T06:45:42.110Z,67.50
2019-05-25T06:46:42.532Z,67.50
2019-05-25T06:47:42.954Z,67.50
2019-05-25T06:48:43.401Z,73.12
2019-05-25T06:49:43.846Z,73.12
2019-05-25T06:50:44.269Z,73.12
2019-05-25T06:51:44.690Z,67.50
2019-05-25T06:52:45.126Z,67.50
2019-05-25T06:53:45.571Z,73.12
2019-05-25T06:54:46.002Z,78.75
2019-05-25T06:55:46.454Z,73.12
2019-05-25T06:56:47.514Z,73.12
2019-05-25T06:57:47.937Z,78.75
2019-05-25T06:58:48.422Z,101.25
2019-05-25T06:59:48.856Z,78.75
2019-05-25T07:00:49.325Z,84.38
2019-05-25T07:01:49.751Z,84.38
2019-05-25T07:02:50.260Z,84.38
2019-05-25T07:03:50.717Z,78.75
2019-05-25T07:04:51.518Z,67.50
2019-05-25T07:05:51.988Z,61.88
2019-05-25T07:06:52.419Z,50.62
2019-05-25T07:07:54.729Z,56.25
2019-05-25T07:08:55.381Z,61.88
2019-05-25T07:09:55.839Z,67.50
2019-05-25T07:10:56.262Z,61.88
2019-05-25T07:11:56.780Z,67.50
2019-05-25T07:12:57.212Z,73.12
2019-05-25T07:13:58.769Z,73.12
2019-05-25T07:14:59.279Z,73.12
2019-05-25T07:15:59.783Z,67.50
2019-05-25T07:17:00.212Z,73.12
2019-05-25T07:18:01.751Z,78.75
2019-05-25T07:19:02.194Z,78.75
2019-05-25T07:20:02.625Z,78.75
2019-05-25T07:21:03.056Z,84.38
2019-05-25T07:22:03.502Z,84.38
2019-05-25T07:23:04.228Z,84.38
2019-05-25T07:24:04.753Z,84.38
2019-05-25T07:25:05.195Z,78.75
2019-05-25T07:26:05.677Z,78.75
2019-05-25T07:27:06.098Z,78.75
2019-05-25T07:28:06.654Z,73.12
2019-05-25T07:29:07.104Z,84.38
2019-05-25T07:30:08.573Z,95.62
2019-05-25T07:31:08.993Z,101.25
2019-05-25T07:32:09.507Z,101.25
2019-05-25T07:33:10.026Z,95.62
2019-05-25T07:34:10.547Z,84.38
2019-05-25T07:35:10.972Z,73.12
2019-05-25T07:36:11.480Z,67.50
2019-05-25T07:37:11.926Z,67.50
2019-05-25T07:38:12.466Z,73.12
2019-05-25T07:39:12.885Z,73.12
2019-05-25T07:40:13.353Z,106.88
2019-05-25T07:41:13.775Z,84.38
2019-05-25T07:42:14.312Z,90.00
2019-05-25T07:43:14.755Z,123.75
2019-05-25T07:44:15.221Z,90.00
2019-05-25T07:45:15.652Z,78.75
2019-05-25T07:46:17.259Z,78.75
2019-05-25T07:47:17.905Z,101.25
2019-05-25T07:48:18.348Z,90.00
2019-05-25T07:49:18.841Z,101.25
2019-05-25T07:50:19.281Z,101.25
2019-05-25T07:51:19.781Z,129.38
2019-05-25T07:52:20.212Z,73.12
2019-05-25T07:53:24.132Z,84.38
2019-05-25T07:54:24.567Z,67.50
2019-05-25T07:55:27.078Z,67.50
2019-05-25T07:56:27.535Z,78.75
2019-05-25T07:57:28.753Z,112.50
2019-05-25T07:58:29.374Z,118.12
2019-05-25T07:59:29.804Z,123.75
2019-05-25T08:00:30.263Z,95.62
2019-05-25T08:01:30.690Z,101.25
2019-05-25T08:02:31.224Z,106.88
2019-05-25T08:03:31.694Z,90.00
2019-05-25T08:04:32.155Z,84.38
2019-05-25T08:05:32.587Z,135.00
2019-05-25T08:06:33.098Z,73.12
2019-05-25T08:07:33.521Z,118.12
2019-05-25T08:08:34.074Z,123.75
2019-05-25T08:09:34.499Z,95.62
2019-05-25T08:10:34.963Z,101.25
2019-05-25T08:11:35.383Z,90.00
2019-05-25T08:12:35.896Z,78.75
2019-05-25T08:13:36.341Z,84.38
2019-05-25T08:14:36.770Z,106.88
2019-05-25T08:15:37.249Z,112.50
2019-05-25T08:16:37.677Z,106.88
2019-05-25T08:17:38.115Z,118.12
2019-05-25T08:18:38.559Z,106.88
2019-05-25T08:19:39.028Z,95.62
2019-05-25T08:20:39.463Z,106.88
2019-05-25T08:21:39.963Z,151.88
2019-05-25T08:22:40.392Z,163.12
2019-05-25T08:23:40.925Z,196.88
2019-05-25T08:24:41.351Z,140.62
2019-05-25T08:25:42.848Z,174.38
2019-05-25T08:26:43.283Z,157.50
2019-05-25T08:27:43.797Z,146.25
2019-05-25T08:28:44.242Z,140.62
2019-05-25T08:29:44.718Z,129.38
2019-05-25T08:30:45.195Z,146.25
2019-05-25T08:31:45.757Z,106.88
2019-05-25T08:32:46.186Z,73.12
2019-05-25T08:33:50.116Z,67.50
2019-05-25T08:34:50.549Z,73.12
2019-05-25T08:35:51.013Z,73.12
2019-05-25T08:36:51.427Z,73.12
2019-05-25T08:37:51.946Z,67.50
2019-05-25T08:38:54.776Z,67.50
2019-05-25T08:39:55.566Z,84.38
2019-05-25T08:40:56.001Z,112.50
2019-05-25T08:41:56.482Z,118.12
2019-05-25T08:42:56.901Z,129.38
2019-05-25T08:43:57.450Z,135.00
2019-05-25T08:44:57.875Z,157.50
2019-05-25T08:45:58.375Z,135.00
2019-05-25T08:46:58.813Z,123.75
2019-05-25T08:47:59.302Z,118.12
2019-05-25T08:48:59.740Z,146.25
2019-05-25T08:50:00.244Z,146.25
2019-05-25T08:51:00.669Z,140.62
2019-05-25T08:52:04.057Z,123.75
2019-05-25T08:53:04.724Z,118.12
2019-05-25T08:54:05.221Z,112.50
2019-05-25T08:55:05.660Z,106.88
2019-05-25T08:56:06.085Z,112.50
2019-05-25T08:57:06.516Z,123.75
2019-05-25T08:58:15.607Z,123.75
2019-05-25T08:59:16.063Z,106.88
2019-05-25T09:00:18.586Z,90.00
2019-05-25T09:01:19.022Z,95.62
2019-05-25T09:02:20.552Z,106.88
2019-05-25T09:03:20.977Z,118.12
2019-05-25T09:04:25.621Z,118.12
2019-05-25T09:05:26.223Z,118.12
2019-05-25T09:06:27.742Z,112.50
2019-05-25T09:07:28.164Z,118.12
2019-05-25T09:08:30.605Z,129.38
2019-05-25T09:09:31.041Z,135.00
2019-05-25T09:10:46.099Z,174.38
2019-05-25T09:11:46.542Z,151.88
2019-05-25T09:12:49.084Z,118.12
2019-05-25T09:13:49.529Z,129.38
2019-05-25T09:15:11.017Z,112.50
2019-05-25T09:16:11.448Z,129.38
2019-05-25T09:17:27.629Z,140.62
2019-05-25T09:18:28.049Z,151.88
2019-05-25T09:19:30.539Z,163.12
2019-05-25T09:20:30.973Z,146.25
2019-05-25T09:21:31.391Z,168.75
2019-05-25T09:22:52.841Z,135.00
2019-05-25T09:23:53.289Z,118.12
2019-05-25T09:24:53.825Z,135.00
2019-05-25T09:25:54.267Z,129.38
2019-05-25T09:27:30.666Z,123.75
2019-05-25T09:28:31.091Z,129.38
2019-05-25T09:29:57.637Z,118.12
2019-05-25T09:30:58.065Z,123.75
2019-05-25T09:32:13.179Z,140.62
2019-05-25T09:33:13.620Z,118.12
2019-05-25T09:34:14.056Z,106.88
2019-05-25T09:35:14.531Z,101.25
2019-05-25T09:36:14.952Z,90.00
2019-05-25T09:37:16.490Z,84.38
2019-05-25T09:38:16.922Z,67.50
2019-05-25T09:39:19.411Z,61.88
2019-05-25T09:40:19.858Z,61.88
2019-05-25T09:42:43.541Z,118.12
2019-05-25T09:48:06.316Z,84.38
2019-05-25T09:49:06.763Z,157.50
2019-05-25T09:50:22.778Z,191.25
2019-05-25T09:51:23.211Z,163.12
2019-05-25T09:52:23.640Z,146.25
2019-05-25T09:53:26.185Z,140.62
2019-05-25T09:54:26.645Z,106.88
2019-05-25T09:55:27.111Z,95.62
2019-05-25T09:56:27.525Z,112.50
2019-05-25T09:57:28.047Z,101.25
2019-05-25T09:58:28.483Z,106.88
2019-05-25T09:59:30.966Z,101.25
2019-05-25T10:00:31.382Z,95.62
2019-05-25T10:01:31.866Z,101.25
2019-05-25T10:02:32.297Z,140.62
2019-05-25T10:03:32.730Z,208.12
2019-05-25T10:04:33.165Z,180.00
2019-05-25T10:05:33.631Z,213.75
2019-05-25T10:06:34.104Z,196.88
2019-05-25T10:08:51.719Z,157.50
2019-05-25T10:09:52.198Z,163.12
2019-05-25T10:10:52.641Z,135.00
2019-05-25T10:11:53.098Z,146.25
2019-05-25T10:12:53.520Z,168.75
2019-05-25T10:13:54.033Z,180.00
2019-05-25T10:14:54.471Z,163.12
2019-05-25T10:15:54.969Z,140.62
2019-05-25T10:16:55.395Z,123.75
2019-05-25T10:17:55.904Z,112.50
2019-05-25T10:18:56.334Z,118.12
2019-05-25T10:19:56.892Z,140.62
2019-05-25T10:20:57.342Z,146.25
2019-05-25T10:21:59.550Z,168.75
2019-05-25T10:23:00.343Z,163.12
2019-05-25T10:24:00.776Z,163.12
2019-05-25T10:25:01.335Z,135.00
2019-05-25T10:26:01.781Z,106.88
2019-05-25T10:27:02.318Z,101.25
2019-05-25T10:28:02.736Z,118.12
2019-05-25T10:29:03.173Z,168.75
2019-05-25T10:30:03.605Z,225.00
2019-05-25T10:31:04.039Z,219.38
2019-05-25T10:32:04.506Z,191.25
2019-05-25T10:33:04.955Z,163.12
2019-05-25T10:34:13.303Z,168.75
2019-05-25T10:35:13.740Z,196.88
2019-05-25T10:38:55.358Z,112.50
2019-05-25T10:39:55.874Z,106.88
2019-05-25T10:40:58.498Z,101.25
2019-05-25T10:41:59.231Z,90.00
2019-05-25T10:42:59.651Z,84.38
2019-05-25T10:44:00.066Z,112.50
2019-05-25T10:45:03.827Z,168.75
2019-05-25T10:46:04.264Z,191.25
2019-05-25T10:47:21.314Z,202.50
2019-05-25T10:48:21.738Z,140.62
2019-05-25T10:49:57.312Z,123.75
2019-05-25T10:50:57.741Z,106.88
2019-05-25T11:02:17.874Z,151.88
2019-05-25T11:03:18.298Z,140.62
2019-05-25T11:04:57.853Z,112.50
2019-05-25T11:05:58.287Z,84.38
2019-05-25T11:07:20.743Z,84.38
2019-05-25T11:08:21.176Z,84.38
2019-05-25T11:09:57.775Z,84.38
2019-05-25T11:10:58.198Z,90.00
2019-05-25T11:12:21.692Z,101.25
2019-05-25T11:13:22.102Z,140.62
2019-05-25T11:32:25.471Z,129.38
2019-05-25T11:33:25.897Z,123.75
2019-05-25T11:34:26.330Z,123.75
2019-05-25T11:35:26.852Z,123.75
2019-05-25T11:36:28.376Z,123.75
2019-05-25T11:37:28.819Z,135.00
2019-05-25T11:38:37.295Z,157.50
2019-05-25T11:39:37.731Z,185.62
2019-05-25T11:40:40.225Z,219.38
2019-05-25T11:41:40.681Z,236.25
2019-05-25T11:42:42.136Z,247.50
2019-05-25T11:43:42.557Z,208.12
2019-05-25T11:46:00.171Z,191.25
2019-05-25T11:47:02.651Z,196.88
2019-05-25T11:48:03.091Z,202.50
2019-05-25T11:49:03.519Z,208.12
2019-05-25T11:50:03.952Z,230.62
2019-05-25T11:51:04.402Z,241.88
2019-05-25T11:52:04.821Z,219.38
2019-05-25T11:53:06.059Z,213.75
2019-05-25T11:54:13.315Z,225.00
2019-05-25T11:55:13.756Z,219.38
2019-05-25T11:58:46.566Z,219.38
2019-05-25T12:00:23.345Z,208.12
2019-05-25T12:01:15.121Z,185.62
2019-05-25T12:02:16.685Z,202.50
2019-05-25T12:03:17.105Z,225.00
2019-05-25T12:04:17.617Z,213.75
2019-05-25T12:05:18.053Z,202.50
2019-05-25T12:06:18.549Z,208.12
2019-05-25T12:07:18.977Z,225.00
2019-05-25T12:08:40.476Z,157.50
2019-05-25T12:09:40.898Z,168.75
2019-05-25T12:10:42.370Z,202.50
2019-05-25T12:11:42.821Z,236.25
2019-05-25T12:14:19.701Z,202.50
2019-05-25T12:15:21.202Z,354.38
2019-05-25T12:16:21.640Z,303.75
2019-05-25T12:17:29.682Z,219.38
2019-05-25T12:18:30.107Z,202.50
2019-05-25T12:19:30.568Z,219.38
2019-05-25T12:21:11.269Z,208.12
2019-05-25T12:22:11.692Z,236.25
2019-05-25T12:31:30.328Z,315.00
2019-05-25T12:32:30.759Z,275.62
2019-05-25T12:33:31.233Z,213.75
2019-05-25T12:34:31.675Z,219.38
2019-05-25T12:35:32.197Z,225.00
2019-05-25T12:36:32.621Z,225.00
2019-05-25T12:37:33.097Z,230.62
2019-05-25T12:38:33.520Z,219.38
2019-05-25T12:39:34.020Z,168.75
2019-05-25T12:40:34.492Z,180.00
2019-05-25T12:41:34.921Z,264.38
2019-05-25T12:42:35.387Z,118.12
2019-05-25T12:43:35.837Z,106.88
2019-05-25T12:44:43.284Z,118.12
2019-05-25T12:45:43.723Z,236.25
2019-05-25T12:46:44.220Z,230.62
2019-05-25T12:47:44.667Z,241.88
2019-05-25T12:48:45.156Z,213.75
2019-05-25T12:49:50.650Z,135.00
2019-05-25T12:50:52.063Z,146.25
2019-05-25T12:51:52.488Z,174.38
2019-05-25T12:52:52.972Z,180.00
2019-05-25T12:53:53.397Z,270.00
2019-05-25T12:54:53.901Z,253.12
2019-05-25T12:55:54.345Z,264.38
2019-05-25T12:56:54.781Z,258.75
2019-05-25T12:57:55.255Z,247.50
2019-05-25T12:58:55.683Z,230.62
2019-05-25T12:59:56.191Z,225.00
2019-05-25T13:00:56.640Z,236.25
2019-05-25T13:01:57.121Z,236.25
2019-05-25T13:02:57.551Z,151.88
2019-05-25T13:03:58.066Z,174.38
2019-05-25T13:04:58.492Z,146.25
2019-05-25T13:05:59.036Z,118.12
2019-05-25T13:06:59.461Z,118.12
2019-05-25T13:07:59.935Z,163.12
2019-05-25T13:09:00.394Z,180.00
2019-05-25T13:10:00.817Z,191.25
2019-05-25T13:11:01.322Z,129.38
2019-05-25T13:12:01.739Z,140.62
2019-05-25T13:13:02.443Z,202.50
2019-05-25T13:14:14.007Z,168.75
2019-05-25T13:15:09.284Z,157.50
2019-05-25T13:16:09.797Z,157.50
2019-05-25T13:17:10.270Z,140.62
2019-05-25T13:18:10.757Z,151.88
2019-05-25T13:19:11.182Z,163.12
2019-05-25T13:20:11.693Z,157.50
2019-05-25T13:21:12.150Z,163.12
2019-05-25T13:22:12.623Z,185.62
2019-05-25T13:23:13.041Z,196.88
2019-05-25T13:24:13.479Z,157.50
2019-05-25T13:25:13.942Z,123.75
2019-05-25T13:26:14.425Z,129.38
2019-05-25T13:27:14.848Z,163.12
2019-05-25T13:28:16.355Z,213.75
2019-05-25T13:29:16.774Z,298.12
2019-05-25T13:30:17.288Z,410.62
2019-05-25T13:31:17.724Z,315.00
2019-05-25T13:32:18.238Z,202.50
2019-05-25T13:33:18.686Z,151.88
2019-05-25T13:34:19.160Z,135.00
2019-05-25T13:35:19.601Z,146.25
2019-05-25T13:36:20.141Z,163.12
2019-05-25T13:37:20.566Z,174.38
2019-05-25T13:38:21.040Z,129.38
2019-05-25T13:39:21.478Z,106.88
2019-05-25T13:40:21.982Z,90.00
2019-05-25T13:41:22.422Z,73.12
2019-05-25T13:42:22.902Z,73.12
2019-05-25T13:43:23.328Z,101.25
2019-05-25T13:44:25.796Z,151.88
2019-05-25T13:45:26.220Z,185.62
2019-05-25T13:46:26.756Z,168.75
2019-05-25T13:47:27.187Z,151.88
2019-05-25T13:48:27.659Z,129.38
2019-05-25T13:49:28.082Z,101.25
2019-05-25T13:50:28.594Z,112.50
2019-05-25T13:51:29.037Z,151.88
2019-05-25T13:52:29.455Z,213.75
2019-05-25T13:53:32.947Z,393.75
2019-05-25T13:54:33.537Z,331.88
2019-05-25T13:56:00.308Z,129.38
2019-05-25T13:57:00.730Z,281.25
2019-05-25T13:58:01.232Z,354.38
2019-05-25T13:59:01.665Z,151.88
2019-05-25T14:00:02.127Z,123.75
2019-05-25T14:01:02.696Z,106.88
2019-05-25T14:02:03.203Z,118.12
2019-05-25T14:03:03.622Z,191.25
2019-05-25T14:04:04.142Z,140.62
2019-05-25T14:05:04.564Z,129.38
2019-05-25T14:06:05.112Z,163.12
2019-05-25T14:07:05.531Z,180.00
2019-05-25T14:08:06.009Z,174.38
2019-05-25T14:09:06.441Z,253.12
2019-05-25T14:10:06.946Z,247.50
2019-05-25T14:11:07.384Z,219.38
2019-05-25T14:12:08.904Z,303.75
2019-05-25T14:13:09.324Z,185.62
2019-05-25T14:14:11.791Z,151.88
2019-05-25T14:15:12.330Z,191.25
2019-05-25T14:16:12.803Z,196.88
2019-05-25T14:17:13.226Z,320.62
2019-05-25T14:18:13.770Z,337.50
2019-05-25T14:19:14.187Z,354.38
2019-05-25T14:20:14.697Z,360.00
2019-05-25T14:21:15.139Z,365.62
2019-05-25T14:22:15.631Z,371.25
2019-05-25T14:23:16.065Z,371.25
2019-05-25T14:24:16.486Z,376.88
2019-05-25T14:25:16.996Z,191.25
2019-05-25T14:26:17.444Z,151.88
2019-05-25T14:27:17.979Z,151.88
2019-05-25T14:28:18.425Z,146.25
2019-05-25T14:29:18.963Z,146.25
2019-05-25T14:30:19.457Z,129.38
2019-05-25T14:31:19.933Z,90.00
2019-05-25T14:32:20.362Z,106.88
2019-05-25T14:33:22.897Z,101.25
2019-05-25T14:34:23.338Z,101.25
2019-05-25T14:35:24.781Z,106.88
2019-05-25T14:36:25.237Z,95.62
2019-05-25T14:37:25.776Z,95.62
2019-05-25T14:38:26.193Z,90.00
2019-05-25T14:39:26.715Z,84.38